Baker City Municipal Airport
KBKE : now visible

Airfield :











YOU CAN JOIN US ON...

 
LOGIN :

Register | Disclaimer

   EN    FR    IT 

 









Legend :    VFR   Marginal VFR   IFR   Intensive IFR   Very Intensive IFR
Visi :
Ceiling :
>= 8 km
>= 3000ft
5 to 8 km
1000 to 3000 ft
1500m to 5 km
500 to 1000 ft
800 to 1500m
200 to 500 ft
< 800m
< 200 ft
Symbols :   Thunderstorms  Fog  Heavy snow  Heavy precipitations  Wind > 20 kt






- Airport Elevation : 3373 ft


KBKE - Baker City Municipal

CURRENT METAR :
  • 080827Z AUTO 00000KT 10SM BKN003 OVC013 03/03 A2979 RMK AO2 RAB04E18 P0000 T00280028 $

EXPIRED METARs :
  • 080808Z AUTO 00000KT 9SM -RA SCT008 OVC012 03/03 A2979 RMK AO2 RAB04 P0000 T00280028 $
  • 080753Z AUTO 20004KT 6SM BR BKN007 OVC012 03/03 A2979 RMK AO2 SLP099 T00330033 400560028 $
  • 080653Z AUTO 00000KT 6SM BR OVC007 03/03 A2979 RMK AO2 SLP098 T00330033
  • 080553Z AUTO 00000KT 5SM BR OVC007 03/03 A2979 RMK AO2 RAE40 SLP100 P0000 60001 T00280028 10050 20028 57005

TAF KBKE
Valid from the 08 at 06:00 until the 09 at 06:00 UTC


080538Z 0806/0906 VRB03KT 4SM -SHRA BR BKN020 OVC035
FM081500 30004KT P6SM BKN020 OVC050
FM082100 32006KT P6SM BKN035



MET'MAP, your aeronautical weather chart ! - Copyright ORBIFLY December 2007 - Disclaimer

ORBIFLY MET'MAP TEAM :

Programming & Development : Alexandra Zaïnal
Concept & original design : Baudouin d'Aumeries
Assistance for programming : Marc-Olivier Méhu
Technical & hardware support : Manuel Goepfert

Contact : metmap@orbifly.com




SOURCES & CREDITS :

   NOAA       Earth
Advisory